Latest Weather Observations for Mildura

IDV60801

Issued at 11:31 am EDT Saturday 28 February 2015 (issued every 30 minutes, with the page automatically refreshed every 10 minutes)

About weather observations | Map of weather stations | Latest weather observations for VIC | Other Formats
Station Details ID: 076031 Name: MILDURA AIRPORT Lat: -34.24 Lon: 142.09 Height: 50.0 m
Data from the previous 72 hours. | See also: Recent months at Mildura
Date/Time
EDT
Temp
°C
App
Temp
°C
Dew
Point
Rel
Hum
%
Delta-T
°C
Wind Press
QNH
hPa
Press
MSL
hPa
Rain
since 9 am
mm
Dir
 
Spd
km/h
Gust
km/h
Spd
kts
Gust
kts
28/11:30am 33.5 28.2 5.1 17 15.2 N 22 32 12 17 1006.0 1005.7 0.0
28/11:00am 33.1 27.8 4.8 17 15.0 N 22 33 12 18 1006.3 1006.1 0.0
28/10:30am 31.9 26.7 5.4 19 14.1 N 22 30 12 16 1006.5 1006.3 0.0
28/10:00am 29.5 25.7 7.4 25 12.0 NNE 17 19 9 10 1006.5 1006.3 0.0
28/09:30am 27.8 24.4 7.6 28 10.9 N 15 17 8 9 1006.6 1006.4 0.0
28/09:00am 26.4 24.8 8.8 33 9.6 NNE 7 11 4 6 1006.4 1006.2 0.0
28/08:30am 25.5 22.9 9.3 36 8.9 NE 13 15 7 8 1006.2 1006.0 0.0
28/08:00am 25.0 22.8 9.3 37 8.6 E 11 13 6 7 1005.8 1005.5 0.0
28/07:30am 25.0 23.3 8.5 35 8.9 S 7 11 4 6 1006.4 1006.2 0.0
28/07:00am 25.1 23.1 8.6 35 8.9 S 9 11 5 6 1006.3 1006.1 0.0
28/06:30am 25.2 23.8 8.7 35 8.9 S 6 7 3 4 1005.8 1005.5 0.0
28/06:00am 25.1 23.1 8.6 35 8.9 SSW 9 11 5 6 1005.9 1005.6 0.0
28/05:30am 26.1 24.5 8.1 32 9.7 ENE 6 9 3 5 1005.4 1005.1 0.0
28/05:00am 26.4 24.2 7.9 31 10.0 ENE 9 11 5 6 1005.3 1005.0 0.0
28/04:30am 26.2 24.1 8.2 32 9.7 NE 9 11 5 6 1005.4 1005.1 0.0
28/04:00am 27.0 24.8 8.0 30 10.3 ENE 9 11 5 6 1005.4 1005.1 0.0
28/03:30am 26.9 25.3 8.8 32 9.9 NE 7 9 4 5 1005.6 1005.3 0.0
28/03:00am 27.7 25.4 9.0 31 10.3 ENE 11 17 6 9 1005.6 1005.3 0.0
28/02:30am 27.7 25.7 10.0 33 9.9 ENE 11 13 6 7 1006.0 1005.7 0.0
28/02:00am 27.7 25.8 10.4 34 9.8 NE 11 13 6 7 1006.5 1006.3 0.0
28/01:30am 27.3 25.2 11.3 37 9.1 E 13 17 7 9 1006.3 1006.1 0.0
28/01:00am 27.7 26.5 11.7 37 9.2 ENE 9 13 5 7 1006.9 1006.7 0.0
28/12:30am 27.6 26.6 12.4 39 8.9 ENE 9 11 5 6 1007.2 1007.0 0.0
28/12:00am 28.1 27.1 12.4 37 9.2 E 9 13 5 7 1007.4 1007.2 0.0
 
Date/Time
EDT
Temp
°C
App
Temp
°C
Dew
Point
Rel
Hum
%
Delta-T
°C
Wind Press
QNH
hPa
Press
MSL
hPa
Rain
since 9 am
mm
Dir
 
Spd
km/h
Gust
km/h
Spd
kts
Gust
kts
27/11:30pm 28.3 27.4 12.6 38 9.2 ESE 9 11 5 6 1007.7 1007.5 0.0
27/11:00pm 28.6 29.0 12.5 37 9.5 SE 2 7 1 4 1007.6 1007.4 0.0
27/10:30pm 28.9 28.4 12.8 37 9.5 SSE 7 9 4 5 1007.5 1007.3 0.0
27/10:00pm 29.3 30.1 12.7 36 9.8 CALM 0 0 0 0 1007.3 1007.1 0.0
27/09:30pm 30.5 30.0 11.9 31 10.9 NE 6 6 3 3 1006.9 1006.7 0.0
27/09:00pm 31.0 29.9 11.9 31 11.2 NNE 9 11 5 6 1006.5 1006.3 0.0
27/08:30pm 31.3 30.7 12.2 31 11.3 ENE 7 9 4 5 1006.4 1006.2 0.0
27/08:00pm 32.1 31.0 11.8 29 12.0 ENE 9 13 5 7 1006.1 1005.8 0.0
27/07:30pm 32.9 31.6 11.4 27 12.6 ENE 9 13 5 7 1006.2 1006.0 0.0
27/07:00pm 33.4 33.6 10.7 25 13.2 CALM 0 7 0 4 1006.1 1005.8 0.0
27/06:30pm 33.7 31.5 10.9 25 13.3 SSW 13 19 7 10 1006.1 1005.8 0.0
27/06:00pm 34.1 32.6 10.7 24 13.7 SW 9 20 5 11 1005.9 1005.6 0.0
27/05:30pm 34.2 32.0 10.7 24 13.7 SW 13 24 7 13 1005.9 1005.6 0.0
27/05:00pm 34.3 33.2 10.8 24 13.8 S 7 20 4 11 1006.1 1005.8 0.0
27/04:30pm 34.9 33.6 11.3 24 13.9 SW 9 19 5 10 1006.5 1006.3 0.0
27/04:00pm 34.7 32.6 11.2 24 13.9 WSW 13 24 7 13 1007.0 1006.8 0.0
27/03:30pm 33.6 31.4 10.9 25 13.3 SSW 13 22 7 12 1007.5 1007.3 0.0
27/03:00pm 32.7 31.0 11.3 27 12.5 W 11 20 6 11 1007.9 1007.7 0.0
27/02:30pm 33.0 31.6 10.9 26 12.9 SW 9 17 5 9 1008.4 1008.2 0.0
27/02:00pm 32.6 30.3 10.6 26 12.8 W 13 24 7 13 1008.8 1008.6 0.0
27/01:30pm 32.8 31.1 11.3 27 12.6 W 11 19 6 10 1009.1 1008.9 0.0
27/01:00pm 31.7 29.8 10.4 27 12.3 NW 11 15 6 8 1009.5 1009.3 0.0
27/12:30pm 30.4 29.4 10.9 30 11.2 WNW 7 15 4 8 1010.0 1009.8 0.0
27/12:00pm 29.2 28.1 10.8 32 10.5 WNW 7 11 4 6 1010.3 1010.1 0.0
27/11:30am 27.9 26.8 10.6 34 9.8 SSW 7 11 4 6 1010.5 1010.3 0.0
27/11:00am 27.3 26.6 10.1 34 9.6 NE 4 9 2 5 1010.8 1010.6 0.0
27/10:30am 25.8 25.7 10.8 39 8.4 NNE 2 7 1 4 1010.8 1010.6 0.0
27/10:00am 24.1 23.0 10.7 43 7.5 ESE 7 11 4 6 1010.9 1010.7 0.0
27/09:30am 22.9 21.5 11.0 47 6.6 ESE 9 13 5 7 1010.6 1010.4 0.0
27/09:00am 21.3 19.5 10.8 51 5.8 SSE 11 15 6 8 1010.7 1010.5 0.0
27/08:30am 20.3 18.1 10.7 54 5.2 SSE 13 17 7 9 1010.6 1010.4 0.0
27/08:00am 19.0 17.6 10.8 59 4.5 S 9 13 5 7 1010.2 1010.0 0.0
27/07:30am 18.6 17.7 11.4 63 3.9 S 7 11 4 6 1010.0 1009.8 0.0
27/07:00am 18.8 17.9 11.4 62 4.1 S 7 11 4 6 1009.5 1009.3 0.0
27/06:30am 19.5 18.6 11.5 60 4.4 S 7 13 4 7 1009.3 1009.1 0.0
27/06:00am 20.1 19.3 11.6 58 4.7 S 7 11 4 6 1009.1 1008.9 0.0
27/05:30am 20.7 19.1 11.6 56 5.1 S 11 17 6 9 1009.2 1009.0 0.0
27/05:00am 20.9 19.8 11.8 56 5.1 S 9 13 5 7 1009.1 1008.9 0.0
27/04:30am 21.3 20.2 11.9 55 5.3 S 9 13 5 7 1009.1 1008.9 0.0
27/04:00am 22.1 20.6 11.8 52 5.8 S 11 19 6 10 1009.0 1008.8 0.0
27/03:30am 22.8 20.9 11.8 50 6.2 S 13 20 7 11 1009.3 1009.1 0.0
27/03:00am 23.1 21.3 12.1 50 6.3 S 13 19 7 10 1009.5 1009.3 0.0
27/02:30am 23.5 21.7 12.2 49 6.4 S 13 19 7 10 1009.6 1009.4 0.0
27/02:00am 23.9 21.8 12.5 49 6.5 S 15 20 8 11 1009.7 1009.5 0.0
27/01:30am 24.0 23.0 12.3 48 6.7 S 9 13 5 7 1009.6 1009.4 0.0
27/01:00am 24.7 23.7 12.3 46 7.1 S 9 13 5 7 1009.9 1009.7 0.0
27/12:30am 25.4 24.0 12.3 44 7.5 SSW 11 17 6 9 1009.9 1009.7 0.0
27/12:00am 26.0 24.2 12.1 42 8.0 SSW 13 19 7 10 1009.9 1009.7 0.0
 
Date/Time
EDT
Temp
°C
App
Temp
°C
Dew
Point
Rel
Hum
%
Delta-T
°C
Wind Press
QNH
hPa
Press
MSL
hPa
Rain
since 9 am
mm
Dir
 
Spd
km/h
Gust
km/h
Spd
kts
Gust
kts
26/11:30pm 26.3 24.7 11.6 40 8.4 SSW 11 17 6 9 1009.8 1009.6 0.0
26/11:00pm 26.9 25.1 11.0 37 9.0 SSW 11 15 6 8 1009.7 1009.5 0.0
26/10:30pm 27.5 26.0 10.7 35 9.5 SSW 9 15 5 8 1009.6 1009.4 0.0
26/10:00pm 28.1 26.5 10.3 33 10.1 SSW 9 13 5 7 1009.4 1009.2 0.0
26/09:30pm 28.9 27.4 10.6 32 10.4 SSW 9 13 5 7 1009.2 1009.0 0.0
26/09:00pm 29.3 27.6 9.9 30 11.0 SSW 9 15 5 8 1008.9 1008.7 0.0
26/08:30pm 29.9 28.0 8.9 27 11.7 SSW 9 13 5 7 1008.5 1008.3 0.0
26/08:00pm 31.2 28.7 8.2 24 12.8 SSW 11 17 6 9 1008.1 1007.9 0.0
26/07:30pm 32.1 29.3 8.4 23 13.2 S 13 24 7 13 1007.9 1007.7 0.0
26/07:00pm 32.5 29.0 8.7 23 13.4 SSW 17 24 9 13 1007.7 1007.5 0.0
26/06:30pm 33.3 29.8 8.7 22 13.9 S 17 28 9 15 1007.4 1007.2 0.0
26/06:00pm 33.0 29.6 7.8 21 14.0 SSW 15 24 8 13 1007.5 1007.3 0.0
26/05:30pm 33.4 29.2 7.4 20 14.4 S 19 33 10 18 1007.6 1007.4 0.0
26/05:00pm 33.4 28.9 5.9 18 14.9 S 19 30 10 16 1007.7 1007.5 0.0
26/04:30pm 32.9 27.7 5.5 18 14.6 SSE 22 32 12 17 1008.0 1007.8 0.0
26/04:00pm 33.0 28.2 4.7 17 15.0 SSW 19 30 10 16 1008.2 1008.0 0.0
26/03:30pm 32.5 27.9 3.5 16 15.0 S 17 28 9 15 1008.7 1008.5 0.0
26/03:00pm 32.4 27.7 3.4 16 15.0 S 17 30 9 16 1009.2 1009.0 0.0
26/02:30pm 32.0 27.3 3.1 16 14.8 S 17 30 9 16 1009.5 1009.3 0.0
26/02:00pm 30.8 25.8 3.8 18 13.9 SSW 19 30 10 16 1009.8 1009.6 0.0
26/01:30pm 30.3 26.8 5.6 21 13.0 S 13 20 7 11 1010.2 1010.0 0.0
26/01:00pm 28.8 25.8 6.2 24 12.0 SSW 11 19 6 10 1010.6 1010.4 0.0
26/12:30pm 28.2 25.0 6.9 26 11.4 S 13 20 7 11 1011.0 1010.8 0.0
26/12:00pm 26.4 23.8 7.9 31 9.9 S 11 19 6 10 1011.5 1011.3 0.0
26/11:30am 25.7 22.7 9.1 35 9.1 S 15 20 8 11 1011.9 1011.7 0.0
26/11:00am 24.8 22.7 11.0 42 7.8 SSE 13 20 7 11 1012.0 1011.8 0.0
26/10:30am 23.4 21.4 11.5 47 6.7 S 13 17 7 9 1012.1 1011.9 0.0
26/10:00am 21.9 21.1 11.6 52 5.8 S 7 11 4 6 1011.8 1011.6 0.0
26/09:30am 20.4 19.6 11.6 57 4.9 SSE 7 11 4 6 1011.4 1011.2 0.0
26/09:00am 18.9 17.2 11.2 61 4.2 SSW 11 17 6 9 1011.4 1011.2 0.0
26/08:30am 17.2 15.2 10.3 64 3.7 SSW 11 17 6 9 1011.1 1010.9 0.0
26/08:00am 16.0 14.3 9.7 66 3.3 SW 9 13 5 7 1011.0 1010.8 0.0
26/07:30am 15.5 13.6 9.2 66 3.2 SW 9 13 5 7 1010.6 1010.4 0.0
26/07:00am 16.2 14.7 9.2 63 3.6 SW 7 13 4 7 1009.8 1009.6 0.0
26/06:30am 16.4 14.1 8.9 61 3.9 SSW 11 17 6 9 1010.1 1009.9 0.0
26/06:00am 16.5 14.8 8.5 59 4.1 SW 7 11 4 6 1010.0 1009.8 0.0
26/05:30am 16.9 14.8 8.1 56 4.5 SW 9 11 5 6 1009.8 1009.6 0.0
26/05:00am 17.4 15.8 8.0 54 4.8 SSW 6 7 3 4 1009.6 1009.4 0.0
26/04:30am 18.2 16.0 7.9 51 5.3 SSW 9 13 5 7 1009.6 1009.4 0.0
26/04:00am 19.0 16.8 7.8 48 5.8 SSW 9 13 5 7 1009.6 1009.4 0.0
26/03:30am 19.4 16.4 7.8 47 6.0 SSW 13 19 7 10 1009.9 1009.7 0.0
26/03:00am 19.8 17.0 6.9 43 6.5 SSW 11 19 6 10 1010.1 1009.9 0.0
26/02:30am 20.0 16.5 5.6 39 7.1 S 13 20 7 11 1010.4 1010.2 0.0
26/02:00am 20.4 17.2 5.2 37 7.5 SSW 11 19 6 10 1010.8 1010.6 0.0
26/01:30am 21.1 17.1 5.1 35 7.9 SSW 15 22 8 12 1010.8 1010.6 0.0
26/01:00am 20.7 16.4 1.1 27 8.9 SSW 13 17 7 9 1010.8 1010.6 0.0
26/12:30am 21.0 16.9 -0.3 24 9.5 SW 11 15 6 8 1010.9 1010.7 0.0
26/12:00am 21.5 17.7 -1.1 22 9.9 SW 9 15 5 8 1011.0 1010.8 0.0
 
Date/Time
EDT
Temp
°C
App
Temp
°C
Dew
Point
Rel
Hum
%
Delta-T
°C
Wind Press
QNH
hPa
Press
MSL
hPa
Rain
since 9 am
mm
Dir
 
Spd
km/h
Gust
km/h
Spd
kts
Gust
kts
25/11:30pm 21.5 17.5 -2.4 20 10.2 SW 9 15 5 8 1011.1 1010.9 0.0
25/11:00pm 21.2 17.6 -2.0 21 10.0 SW 7 11 4 6 1011.0 1010.8 0.0
25/10:30pm 23.0 19.4 -1.8 19 10.9 SW 7 11 4 6 1011.0 1010.8 0.0
25/10:00pm 23.6 19.6 -2.1 18 11.3 SW 9 9 5 5 1010.8 1010.6 0.0
25/09:30pm 23.9 20.4 -1.1 19 11.2 SW 7 9 4 5 1010.6 1010.4 0.0
25/09:00pm 25.6 22.0 -2.1 16 12.4 SW 7 9 4 5 1010.5 1010.3 0.0
25/08:30pm 26.7 23.2 -1.2 16 12.7 SW 7 11 4 6 1010.2 1010.0 0.0
25/08:00pm 28.4 24.5 -1.6 14 13.8 SW 9 15 5 8 1010.2 1010.0 0.0
25/07:30pm 29.5 24.8 -1.8 13 14.5 SW 13 22 7 12 1010.0 1009.8 0.0
25/07:00pm 29.7 25.0 -1.6 13 14.6 SSW 13 20 7 11 1010.0 1009.8 0.0
25/06:30pm 30.0 25.4 -1.4 13 14.7 S 13 24 7 13 1009.8 1009.6 0.0
25/06:00pm 30.5 25.8 -2.1 12 15.1 WSW 13 20 7 11 1010.0 1009.8 0.0
25/05:30pm 30.5 26.3 -1.0 13 14.9 SW 11 20 6 11 1010.3 1010.1 0.0
25/05:00pm 29.7 25.2 -0.6 14 14.3 SSW 13 22 7 12 1010.4 1010.2 0.0
25/04:30pm 29.2 24.7 -0.1 15 13.9 SSW 13 24 7 13 1010.9 1010.7 0.0
25/04:00pm 29.0 24.5 -0.2 15 13.8 SSW 13 24 7 13 1011.5 1011.3 0.0
25/03:30pm 28.8 23.7 0.5 16 13.5 SSW 17 26 9 14 1012.1 1011.9 0.0
25/03:00pm 28.3 24.0 3.2 20 12.6 S 15 22 8 12 1012.5 1012.3 0.0
25/02:30pm 27.4 23.1 3.2 21 12.0 S 15 24 8 13 1013.1 1012.9 0.0
25/02:00pm 26.1 21.9 4.0 24 11.0 SSW 15 22 8 12 1013.5 1013.3 0.0
25/01:30pm 25.8 21.4 4.9 26 10.6 SSW 17 24 9 13 1014.1 1013.9 0.0
25/01:00pm 23.9 20.4 5.3 30 9.4 SSW 13 26 7 14 1014.7 1014.5 0.0
25/12:30pm 23.2 19.4 5.6 32 8.9 S 15 26 8 14 1015.2 1015.0 0.0
25/12:00pm 22.1 18.4 6.3 36 8.0 S 15 26 8 14 1015.6 1015.4 0.0

Other Formats:

Comma delimited format used in spreadsheet applications
http://www.bom.gov.au/fwo/IDV60801/IDV60801.94693.axf

JavaScript Object Notation format (JSON) in row-major order
http://www.bom.gov.au/fwo/IDV60801/IDV60801.94693.json